Time;durP1;ratioP1;P1;durP2;ratioP2;P2;SDS_P1;SDS_P2;PMS_P1;PMS_P2;Temp;Humidity;BMP_temperature;BMP_pressure;BME280_temperature;BME280_humidity;BME280_pressure;Samples;Min_cycle;Max_cycle;Signal;HPM_P1;HPM_P2
2023/09/29 00:04:29;;;;;;;;;;;17.60;99.90;;;;;;6771096;87;20075;-78
2023/09/29 00:14:30;;;;;;;;;;;17.60;99.90;;;;;;6773143;87;20303;-78
2023/09/29 00:24:30;;;;;;;;;;;17.60;99.90;;;;;;6772379;87;20581;-78
2023/09/29 00:34:31;;;;;;;;;;;17.70;99.90;;;;;;6768722;87;20102;-77
2023/09/29 00:44:33;;;;;;;;;;;17.80;99.90;;;;;;6775545;87;20496;-79
2023/09/29 00:54:35;;;;;;;;;;;17.70;99.90;;;;;;6774838;87;20133;-78
2023/09/29 01:04:36;;;;;;;;;;;17.80;99.90;;;;;;6751117;76;20076;-76
2023/09/29 01:14:36;;;;;;;;;;;17.80;99.90;;;;;;6733590;88;20062;-77
2023/09/29 01:24:36;;;;;;;;;;;17.80;99.90;;;;;;6733623;88;20550;-77
2023/09/29 01:34:37;;;;;;;;;;;17.90;99.90;;;;;;6736277;88;20826;-77
2023/09/29 01:44:38;;;;;;;;;;;17.70;99.90;;;;;;6733581;88;20177;-75
2023/09/29 01:54:38;;;;;;;;;;;17.60;99.90;;;;;;6736024;88;20900;-77
2023/09/29 02:04:39;;;;;;;;;;;17.50;99.90;;;;;;6736289;88;20176;-77
2023/09/29 02:14:40;;;;;;;;;;;17.60;99.90;;;;;;6741817;88;20087;-77
2023/09/29 02:24:40;;;;;;;;;;;17.60;99.90;;;;;;6733225;88;20073;-77
2023/09/29 02:34:42;;;;;;;;;;;17.90;99.90;;;;;;6732540;88;20059;-78
2023/09/29 02:44:43;;;;;;;;;;;18.30;99.90;;;;;;6734417;88;20598;-77
2023/09/29 02:54:43;;;;;;;;;;;18.30;99.90;;;;;;6733640;88;20057;-75
2023/09/29 03:04:46;;;;;;;;;;;18.10;99.90;;;;;;6740465;88;20050;-77
2023/09/29 03:14:47;;;;;;;;;;;18.10;99.90;;;;;;6735920;88;20109;-79
2023/09/29 03:24:47;;;;;;;;;;;18.10;99.90;;;;;;6734631;88;20132;-76
2023/09/29 03:34:49;;;;;;;;;;;18.30;99.90;;;;;;6736677;88;20074;-78
2023/09/29 03:44:49;;;;;;;;;;;18.40;99.90;;;;;;6736549;88;20057;-78
2023/09/29 03:54:50;;;;;;;;;;;18.50;99.90;;;;;;6734124;88;20066;-77
2023/09/29 04:04:50;;;;;;;;;;;18.60;99.90;;;;;;6739885;88;20503;-77
2023/09/29 04:14:52;;;;;;;;;;;18.60;99.90;;;;;;6741886;88;20117;-78
2023/09/29 04:24:53;;;;;;;;;;;18.50;99.90;;;;;;6739799;88;20205;-78
2023/09/29 04:34:53;;;;;;;;;;;18.50;99.90;;;;;;6738433;88;20736;-77
2023/09/29 04:44:54;;;;;;;;;;;18.50;99.90;;;;;;6731225;88;20108;-77
2023/09/29 04:54:54;;;;;;;;;;;18.60;99.90;;;;;;6735420;88;20084;-78
2023/09/29 05:04:55;;;;;;;;;;;18.60;99.90;;;;;;6734668;88;20084;-78
2023/09/29 05:14:57;;;;;;;;;;;18.50;99.90;;;;;;6737914;88;20054;-78
2023/09/29 05:24:58;;;;;;;;;;;18.50;99.90;;;;;;6733412;88;20592;-77
2023/09/29 05:34:59;;;;;;;;;;;18.60;99.90;;;;;;6733355;88;20098;-79
2023/09/29 05:44:59;;;;;;;;;;;18.60;99.90;;;;;;6738880;88;20088;-78
2023/09/29 05:55:00;;;;;;;;;;;18.60;99.90;;;;;;6729803;88;20078;-78
2023/09/29 06:05:00;;;;;;;;;;;18.60;99.90;;;;;;6737367;88;20087;-78
2023/09/29 06:15:00;;;;;;;;;;;18.70;99.90;;;;;;6744116;88;20072;-78
2023/09/29 06:25:01;;;;;;;;;;;18.70;99.90;;;;;;6732764;88;20607;-78
2023/09/29 06:35:02;;;;;;;;;;;18.90;99.90;;;;;;6734494;88;20492;-78
2023/09/29 06:45:03;;;;;;;;;;;19.00;99.90;;;;;;6731540;88;20095;-78
2023/09/29 06:55:04;;;;;;;;;;;19.30;99.90;;;;;;6734022;88;20063;-78
2023/09/29 07:05:05;;;;;;;;;;;19.50;99.90;;;;;;6735240;88;21897;-80
2023/09/29 07:15:06;;;;;;;;;;;19.70;99.90;;;;;;6731887;88;20157;-79
2023/09/29 07:25:07;;;;;;;;;;;19.80;99.90;;;;;;6730346;88;20090;-78
2023/09/29 07:35:07;;;;;;;;;;;20.00;99.90;;;;;;6735145;88;20086;-78
2023/09/29 07:45:08;;;;;;;;;;;20.20;99.90;;;;;;6731995;88;20234;-78
2023/09/29 07:55:09;;;;;;;;;;;21.30;99.90;;;;;;6731235;88;20074;-79
2023/09/29 08:05:12;;;;;;;;;;;23.10;99.90;;;;;;6733050;88;20093;-79
2023/09/29 08:15:13;;;;;;;;;;;22.70;99.90;;;;;;6736411;88;20506;-80
2023/09/29 08:25:14;;;;;;;;;;;23.00;99.90;;;;;;6734318;88;20066;-79
2023/09/29 08:35:15;;;;;;;;;;;22.10;99.90;;;;;;6733117;88;20059;-79
2023/09/29 08:45:17;;;;;;;;;;;22.20;99.90;;;;;;6734316;88;20042;-79
2023/09/29 08:55:17;;;;;;;;;;;22.30;99.90;;;;;;6734411;88;20507;-78
2023/09/29 09:05:20;;;;;;;;;;;22.30;99.90;;;;;;6737698;88;20082;-77
2023/09/29 09:15:23;;;;;;;;;;;22.50;99.90;;;;;;6734850;88;20072;-78
2023/09/29 09:25:35;;;;;;;;;;;22.70;99.90;;;;;;6735140;88;20590;-77
2023/09/29 09:35:38;;;;;;;;;;;23.30;99.90;;;;;;6735443;88;20063;-79
2023/09/29 09:45:40;;;;;;;;;;;23.80;99.90;;;;;;6732989;88;20517;-78
2023/09/29 09:55:44;;;;;;;;;;;24.70;99.90;;;;;;6736883;88;20077;-78
2023/09/29 10:05:51;;;;;;;;;;;25.90;99.90;;;;;;6734044;88;20506;-77
2023/09/29 10:15:56;;;;;;;;;;;26.00;99.90;;;;;;6734933;88;20106;-79
2023/09/29 10:26:00;;;;;;;;;;;26.20;99.90;;;;;;6734601;88;20101;-79
2023/09/29 10:36:01;;;;;;;;;;;26.10;99.90;;;;;;6736411;88;20059;-79
2023/09/29 10:46:08;;;;;;;;;;;25.50;99.90;;;;;;6735910;88;20076;-77
2023/09/29 10:56:09;;;;;;;;;;;25.20;99.90;;;;;;6736523;88;20075;-78
2023/09/29 11:06:16;;;;;;;;;;;24.80;99.90;;;;;;6751589;87;20057;-78
2023/09/29 11:16:17;;;;;;;;;;;24.50;99.90;;;;;;6746064;87;20049;-76
2023/09/29 11:26:17;;;;;;;;;;;24.10;99.90;;;;;;6756967;87;20100;-80
2023/09/29 11:36:19;;;;;;;;;;;24.40;99.90;;;;;;6752176;88;20750;-81
2023/09/29 11:46:20;;;;;;;;;;;24.20;99.90;;;;;;6751540;87;20440;-79
2023/09/29 11:56:20;;;;;;;;;;;25.20;99.90;;;;;;6751300;87;20260;-78
2023/09/29 12:06:21;;;;;;;;;;;25.70;99.90;;;;;;6748885;88;20127;-80
2023/09/29 12:16:21;;;;;;;;;;;26.20;99.90;;;;;;6747421;88;20070;-77
2023/09/29 12:26:22;;;;;;;;;;;25.60;99.90;;;;;;6766015;87;20181;-77
2023/09/29 12:36:22;;;;;;;;;;;25.70;99.90;;;;;;6745334;87;20054;-76
2023/09/29 12:46:23;;;;;;;;;;;26.20;99.90;;;;;;6748593;87;20071;-76
2023/09/29 12:56:25;;;;;;;;;;;26.40;99.80;;;;;;6745038;88;20492;-75
2023/09/29 13:06:26;;;;;;;;;;;25.90;99.90;;;;;;6737284;88;20089;-79
2023/09/29 13:16:26;;;;;;;;;;;25.10;99.90;;;;;;6738787;88;20058;-79
2023/09/29 13:26:27;;;;;;;;;;;24.90;99.90;;;;;;6755743;88;20517;-79
2023/09/29 13:36:27;;;;;;;;;;;24.60;99.90;;;;;;6754587;88;20542;-78
2023/09/29 13:46:28;;;;;;;;;;;24.10;99.90;;;;;;6753742;88;20054;-78
2023/09/29 13:56:28;;;;;;;;;;;24.00;99.90;;;;;;6755647;88;20083;-79
2023/09/29 14:06:29;;;;;;;;;;;23.20;99.90;;;;;;6759437;88;20088;-78
2023/09/29 14:16:29;;;;;;;;;;;22.80;99.90;;;;;;6753995;88;20053;-77
2023/09/29 14:26:30;;;;;;;;;;;22.90;99.90;;;;;;6751881;87;20068;-79
2023/09/29 14:36:30;;;;;;;;;;;21.90;99.90;;;;;;6753842;88;20132;-79
2023/09/29 14:46:31;;;;;;;;;;;22.20;99.90;;;;;;6753932;88;20120;-80
2023/09/29 14:56:33;;;;;;;;;;;22.40;99.90;;;;;;6754242;88;20168;-79
2023/09/29 15:06:33;;;;;;;;;;;22.40;99.90;;;;;;6753690;88;20052;-79
2023/09/29 15:16:34;;;;;;;;;;;22.80;99.90;;;;;;6750294;87;20071;-80
2023/09/29 15:26:34;;;;;;;;;;;22.80;99.90;;;;;;6754189;87;20077;-80
2023/09/29 15:36:35;;;;;;;;;;;22.70;99.90;;;;;;6753939;87;20141;-79
2023/09/29 15:46:35;;;;;;;;;;;22.50;99.90;;;;;;6754948;88;20061;-79
2023/09/29 15:56:36;;;;;;;;;;;22.30;99.90;;;;;;6755580;87;20049;-78
2023/09/29 16:06:36;;;;;;;;;;;22.30;99.90;;;;;;6757180;87;20049;-80
2023/09/29 16:16:42;;;;;;;;;;;22.00;99.90;;;;;;6757856;88;20080;-80
2023/09/29 16:26:42;;;;;;;;;;;21.00;99.90;;;;;;6767412;87;20074;-77
2023/09/29 16:36:43;;;;;;;;;;;20.10;99.90;;;;;;6757459;88;20069;-78
2023/09/29 16:46:47;;;;;;;;;;;19.30;99.90;;;;;;6756045;87;20074;-77
2023/09/29 16:56:48;;;;;;;;;;;18.70;99.90;;;;;;6753037;87;20525;-78
2023/09/29 17:06:49;;;;;;;;;;;18.30;99.90;;;;;;6753036;87;20144;-77
2023/09/29 17:16:49;;;;;;;;;;;17.90;99.90;;;;;;6751769;87;20665;-77
2023/09/29 17:26:49;;;;;;;;;;;17.80;99.90;;;;;;6747648;87;20073;-75
2023/09/29 17:36:50;;;;;;;;;;;17.70;99.90;;;;;;6750545;87;20065;-76
2023/09/29 17:46:50;;;;;;;;;;;17.50;99.90;;;;;;6752606;87;20078;-79
2023/09/29 17:56:51;;;;;;;;;;;17.50;99.90;;;;;;6754996;87;20088;-80
2023/09/29 18:06:51;;;;;;;;;;;17.40;99.90;;;;;;6752686;87;20065;-79
2023/09/29 18:16:52;;;;;;;;;;;17.30;99.90;;;;;;6748911;87;20062;-77
2023/09/29 18:26:52;;;;;;;;;;;17.20;99.90;;;;;;6740240;87;20172;-76
2023/09/29 18:36:54;;;;;;;;;;;17.20;99.90;;;;;;6750610;87;20093;-76
2023/09/29 18:46:54;;;;;;;;;;;17.10;99.90;;;;;;6737486;87;20078;-76
2023/09/29 18:56:54;;;;;;;;;;;17.10;99.90;;;;;;6744684;87;20065;-76
2023/09/29 19:06:55;;;;;;;;;;;17.10;99.90;;;;;;6744617;87;20103;-74
2023/09/29 19:16:55;;;;;;;;;;;17.10;99.90;;;;;;6745488;87;20104;-74
2023/09/29 19:26:56;;;;;;;;;;;17.00;99.90;;;;;;6744950;87;20131;-77
2023/09/29 19:47:38;;;;;;;;;;;17.00;99.90;;;;;;6743568;88;20073;-78
2023/09/29 19:57:38;;;;;;;;;;;16.90;99.90;;;;;;6726673;85;29855;-78
2023/09/29 20:07:42;;;;;;;;;;;16.90;99.90;;;;;;6716732;88;20866;-80
2023/09/29 20:17:42;;;;;;;;;;;16.80;99.90;;;;;;6714391;88;20043;-79
2023/09/29 20:27:43;;;;;;;;;;;16.60;99.90;;;;;;6718212;88;20597;-78
2023/09/29 20:37:45;;;;;;;;;;;16.50;99.90;;;;;;6715914;88;20182;-77
2023/09/29 20:47:45;;;;;;;;;;;16.30;99.90;;;;;;6720245;88;20162;-78
2023/09/29 20:57:46;;;;;;;;;;;16.20;99.90;;;;;;6721532;88;20176;-78
2023/09/29 21:07:46;;;;;;;;;;;16.10;99.90;;;;;;6720983;88;20066;-78
2023/09/29 21:17:46;;;;;;;;;;;15.90;99.90;;;;;;6730290;88;20564;-78
2023/09/29 21:27:47;;;;;;;;;;;15.70;99.90;;;;;;6720185;88;20100;-78
2023/09/29 21:37:47;;;;;;;;;;;15.60;99.90;;;;;;6721900;88;20058;-78
2023/09/29 21:47:48;;;;;;;;;;;15.40;99.90;;;;;;6718591;88;20619;-78
2023/09/29 21:57:48;;;;;;;;;;;15.30;99.90;;;;;;6719621;88;20173;-78
2023/09/29 22:07:49;;;;;;;;;;;15.20;99.90;;;;;;6721735;88;20078;-78
2023/09/29 22:17:51;;;;;;;;;;;15.10;99.90;;;;;;6725168;88;20055;-79
2023/09/29 22:27:51;;;;;;;;;;;14.90;99.90;;;;;;6732308;88;20067;-79
2023/09/29 22:37:52;;;;;;;;;;;14.90;99.90;;;;;;6725849;88;20069;-79
2023/09/29 22:47:52;;;;;;;;;;;14.70;99.90;;;;;;6704605;88;20203;-78
2023/09/29 22:57:52;;;;;;;;;;;14.70;99.90;;;;;;6703625;88;20167;-77
2023/09/29 23:07:53;;;;;;;;;;;14.50;99.90;;;;;;6685252;88;20061;-77
2023/09/29 23:17:55;;;;;;;;;;;14.50;99.90;;;;;;6685942;88;20093;-77
2023/09/29 23:27:56;;;;;;;;;;;14.40;99.90;;;;;;6689962;88;20645;-81
2023/09/29 23:37:56;;;;;;;;;;;14.20;99.90;;;;;;6714053;88;20079;-79
2023/09/29 23:47:57;;;;;;;;;;;14.20;99.90;;;;;;6709359;88;20574;-80
2023/09/29 23:57:57;;;;;;;;;;;14.20;99.90;;;;;;6712403;88;20047;-79
